sensor_id;sensor_type;location;lat;lon;timestamp;temperature;humidity
57218;DHT22;43078;52.972;6.482;2022-12-29T00:01:37;10.40;99.90
57218;DHT22;43078;52.972;6.482;2022-12-29T00:04:04;10.40;99.90
57218;DHT22;43078;52.972;6.482;2022-12-29T00:06:30;10.40;99.90
57218;DHT22;43078;52.972;6.482;2022-12-29T00:08:56;10.40;99.90
57218;DHT22;43078;52.972;6.482;2022-12-29T00:11:24;10.40;99.90
57218;DHT22;43078;52.972;6.482;2022-12-29T00:13:51;10.40;99.90
57218;DHT22;43078;52.972;6.482;2022-12-29T00:16:36;10.40;99.90
57218;DHT22;43078;52.972;6.482;2022-12-29T00:19:03;10.40;99.90
57218;DHT22;43078;52.972;6.482;2022-12-29T00:21:29;10.40;99.90
57218;DHT22;43078;52.972;6.482;2022-12-29T00:24:18;10.40;99.90
57218;DHT22;43078;52.972;6.482;2022-12-29T00:26:55;10.40;99.90
57218;DHT22;43078;52.972;6.482;2022-12-29T00:29:40;10.30;99.90
57218;DHT22;43078;52.972;6.482;2022-12-29T00:32:24;10.30;99.90
57218;DHT22;43078;52.972;6.482;2022-12-29T00:35:17;10.40;99.90
57218;DHT22;43078;52.972;6.482;2022-12-29T00:37:46;10.40;99.90
57218;DHT22;43078;52.972;6.482;2022-12-29T00:40:32;10.40;99.90
57218;DHT22;43078;52.972;6.482;2022-12-29T00:43:16;10.40;99.90
57218;DHT22;43078;52.972;6.482;2022-12-29T00:46:00;10.40;99.90
57218;DHT22;43078;52.972;6.482;2022-12-29T00:48:25;10.40;99.90
57218;DHT22;43078;52.972;6.482;2022-12-29T00:51:09;10.50;99.90
57218;DHT22;43078;52.972;6.482;2022-12-29T00:53:35;10.50;99.90
57218;DHT22;43078;52.972;6.482;2022-12-29T00:56:00;10.40;99.90
57218;DHT22;43078;52.972;6.482;2022-12-29T00:58:30;10.50;99.90
57218;DHT22;43078;52.972;6.482;2022-12-29T01:01:07;10.50;99.90
57218;DHT22;43078;52.972;6.482;2022-12-29T01:03:33;10.50;99.90
57218;DHT22;43078;52.972;6.482;2022-12-29T01:06:01;10.50;99.90
57218;DHT22;43078;52.972;6.482;2022-12-29T01:08:30;10.50;99.90
57218;DHT22;43078;52.972;6.482;2022-12-29T01:11:04;10.60;99.90
57218;DHT22;43078;52.972;6.482;2022-12-29T01:13:30;10.50;99.90
57218;DHT22;43078;52.972;6.482;2022-12-29T01:15:56;10.50;99.90
57218;DHT22;43078;52.972;6.482;2022-12-29T01:18:22;10.50;99.90
57218;DHT22;43078;52.972;6.482;2022-12-29T01:20:48;10.50;99.90
57218;DHT22;43078;52.972;6.482;2022-12-29T01:23:14;10.60;99.90
57218;DHT22;43078;52.972;6.482;2022-12-29T01:25:39;10.60;99.90
57218;DHT22;43078;52.972;6.482;2022-12-29T01:28:05;10.60;99.90
57218;DHT22;43078;52.972;6.482;2022-12-29T01:30:34;10.60;99.90
57218;DHT22;43078;52.972;6.482;2022-12-29T01:32:59;10.60;99.90
57218;DHT22;43078;52.972;6.482;2022-12-29T01:35:25;10.60;99.90
57218;DHT22;43078;52.972;6.482;2022-12-29T01:37:51;10.60;99.90
57218;DHT22;43078;52.972;6.482;2022-12-29T01:40:16;10.60;99.90
57218;DHT22;43078;52.972;6.482;2022-12-29T01:42:42;10.60;99.90
57218;DHT22;43078;52.972;6.482;2022-12-29T01:45:17;10.60;99.90
57218;DHT22;43078;52.972;6.482;2022-12-29T01:48:01;10.60;99.90
57218;DHT22;43078;52.972;6.482;2022-12-29T01:50:33;10.60;99.90
57218;DHT22;43078;52.972;6.482;2022-12-29T01:53:05;10.60;99.90
57218;DHT22;43078;52.972;6.482;2022-12-29T01:55:36;10.60;99.90
57218;DHT22;43078;52.972;6.482;2022-12-29T01:58:05;10.60;99.90
57218;DHT22;43078;52.972;6.482;2022-12-29T02:00:32;10.60;99.90
57218;DHT22;43078;52.972;6.482;2022-12-29T02:02:57;10.70;99.90
57218;DHT22;43078;52.972;6.482;2022-12-29T02:05:49;10.70;99.90
57218;DHT22;43078;52.972;6.482;2022-12-29T02:08:13;10.70;99.90
57218;DHT22;43078;52.972;6.482;2022-12-29T02:10:39;10.70;99.90
57218;DHT22;43078;52.972;6.482;2022-12-29T02:13:06;10.70;99.90
57218;DHT22;43078;52.972;6.482;2022-12-29T02:18:23;10.70;99.90
57218;DHT22;43078;52.972;6.482;2022-12-29T02:26:28;10.70;99.90
57218;DHT22;43078;52.972;6.482;2022-12-29T02:35:35;10.70;99.90
57218;DHT22;43078;52.972;6.482;2022-12-29T02:37:31;10.70;99.90
57218;DHT22;43078;52.972;6.482;2022-12-29T02:40:55;10.70;99.90
57218;DHT22;43078;52.972;6.482;2022-12-29T02:43:13;10.70;99.90
57218;DHT22;43078;52.972;6.482;2022-12-29T02:48:18;10.70;99.90
57218;DHT22;43078;52.972;6.482;2022-12-29T02:53:27;10.70;99.90
57218;DHT22;43078;52.972;6.482;2022-12-29T02:56:11;10.70;99.90
57218;DHT22;43078;52.972;6.482;2022-12-29T02:58:37;10.70;99.90
57218;DHT22;43078;52.972;6.482;2022-12-29T03:04:07;10.70;99.90
57218;DHT22;43078;52.972;6.482;2022-12-29T03:15:36;10.70;99.90
57218;DHT22;43078;52.972;6.482;2022-12-29T03:23:35;10.70;99.90
57218;DHT22;43078;52.972;6.482;2022-12-29T03:26:06;10.70;99.90
57218;DHT22;43078;52.972;6.482;2022-12-29T03:28:39;10.70;99.90
57218;DHT22;43078;52.972;6.482;2022-12-29T03:31:11;10.70;99.90
57218;DHT22;43078;52.972;6.482;2022-12-29T03:33:38;10.70;99.90
57218;DHT22;43078;52.972;6.482;2022-12-29T03:36:07;10.70;99.90
57218;DHT22;43078;52.972;6.482;2022-12-29T03:38:44;10.70;99.90
57218;DHT22;43078;52.972;6.482;2022-12-29T03:41:18;10.70;99.90
57218;DHT22;43078;52.972;6.482;2022-12-29T03:43:45;10.70;99.90
57218;DHT22;43078;52.972;6.482;2022-12-29T03:46:11;10.70;99.90
57218;DHT22;43078;52.972;6.482;2022-12-29T03:48:37;10.70;99.90
57218;DHT22;43078;52.972;6.482;2022-12-29T03:51:02;10.70;99.90
57218;DHT22;43078;52.972;6.482;2022-12-29T03:53:28;10.70;99.90
57218;DHT22;43078;52.972;6.482;2022-12-29T03:55:54;10.70;99.90
57218;DHT22;43078;52.972;6.482;2022-12-29T03:58:19;10.70;99.90
57218;DHT22;43078;52.972;6.482;2022-12-29T04:00:45;10.60;99.90
57218;DHT22;43078;52.972;6.482;2022-12-29T04:03:10;10.60;99.90
57218;DHT22;43078;52.972;6.482;2022-12-29T04:05:36;10.70;99.90
57218;DHT22;43078;52.972;6.482;2022-12-29T04:08:02;10.60;99.90
57218;DHT22;43078;52.972;6.482;2022-12-29T04:10:27;10.60;99.90
57218;DHT22;43078;52.972;6.482;2022-12-29T04:12:53;10.60;99.90
57218;DHT22;43078;52.972;6.482;2022-12-29T04:15:18;10.60;99.90
57218;DHT22;43078;52.972;6.482;2022-12-29T04:17:44;10.60;99.90
57218;DHT22;43078;52.972;6.482;2022-12-29T04:20:10;10.60;99.90
57218;DHT22;43078;52.972;6.482;2022-12-29T04:23:03;10.60;99.90
57218;DHT22;43078;52.972;6.482;2022-12-29T04:25:30;10.60;99.90
57218;DHT22;43078;52.972;6.482;2022-12-29T04:27:56;10.50;99.90
57218;DHT22;43078;52.972;6.482;2022-12-29T04:30:22;10.50;99.90
57218;DHT22;43078;52.972;6.482;2022-12-29T04:32:47;10.50;99.90
57218;DHT22;43078;52.972;6.482;2022-12-29T04:35:13;10.50;99.90
57218;DHT22;43078;52.972;6.482;2022-12-29T04:37:39;10.50;99.90
57218;DHT22;43078;52.972;6.482;2022-12-29T04:40:05;10.50;99.90
57218;DHT22;43078;52.972;6.482;2022-12-29T04:42:30;10.40;99.90
57218;DHT22;43078;52.972;6.482;2022-12-29T04:44:56;10.40;99.90
57218;DHT22;43078;52.972;6.482;2022-12-29T04:47:21;10.40;99.90
57218;DHT22;43078;52.972;6.482;2022-12-29T04:49:47;10.40;99.90
57218;DHT22;43078;52.972;6.482;2022-12-29T04:52:13;10.40;99.90
57218;DHT22;43078;52.972;6.482;2022-12-29T04:54:38;10.30;99.90
57218;DHT22;43078;52.972;6.482;2022-12-29T04:57:05;10.30;99.90
57218;DHT22;43078;52.972;6.482;2022-12-29T04:59:30;10.30;99.90
57218;DHT22;43078;52.972;6.482;2022-12-29T05:01:56;10.20;99.90
57218;DHT22;43078;52.972;6.482;2022-12-29T05:04:22;10.30;99.90
57218;DHT22;43078;52.972;6.482;2022-12-29T05:06:47;10.20;99.90
57218;DHT22;43078;52.972;6.482;2022-12-29T05:09:13;10.20;99.90
57218;DHT22;43078;52.972;6.482;2022-12-29T05:11:38;10.20;99.90
57218;DHT22;43078;52.972;6.482;2022-12-29T05:14:04;10.20;99.90
57218;DHT22;43078;52.972;6.482;2022-12-29T05:16:30;10.20;99.90
57218;DHT22;43078;52.972;6.482;2022-12-29T05:18:55;10.10;99.90
57218;DHT22;43078;52.972;6.482;2022-12-29T05:21:21;10.10;99.90
57218;DHT22;43078;52.972;6.482;2022-12-29T05:23:47;10.10;99.90
57218;DHT22;43078;52.972;6.482;2022-12-29T05:26:12;10.10;99.90
57218;DHT22;43078;52.972;6.482;2022-12-29T05:28:38;10.10;99.90
57218;DHT22;43078;52.972;6.482;2022-12-29T05:31:03;10.10;99.90
57218;DHT22;43078;52.972;6.482;2022-12-29T05:33:29;10.00;99.90
57218;DHT22;43078;52.972;6.482;2022-12-29T05:35:55;10.00;99.90
57218;DHT22;43078;52.972;6.482;2022-12-29T05:38:20;10.00;99.90
57218;DHT22;43078;52.972;6.482;2022-12-29T05:40:46;10.00;99.90
57218;DHT22;43078;52.972;6.482;2022-12-29T05:43:12;10.00;99.90
57218;DHT22;43078;52.972;6.482;2022-12-29T05:45:37;10.00;99.90
57218;DHT22;43078;52.972;6.482;2022-12-29T05:48:03;10.00;99.90
57218;DHT22;43078;52.972;6.482;2022-12-29T05:50:29;10.00;99.90
57218;DHT22;43078;52.972;6.482;2022-12-29T05:52:54;9.90;99.90
57218;DHT22;43078;52.972;6.482;2022-12-29T05:55:20;9.90;99.90
57218;DHT22;43078;52.972;6.482;2022-12-29T05:57:46;9.90;99.90
57218;DHT22;43078;52.972;6.482;2022-12-29T06:00:12;9.90;99.90
57218;DHT22;43078;52.972;6.482;2022-12-29T06:02:37;9.90;99.90
57218;DHT22;43078;52.972;6.482;2022-12-29T06:05:03;9.90;99.90
57218;DHT22;43078;52.972;6.482;2022-12-29T06:07:29;9.90;99.90
57218;DHT22;43078;52.972;6.482;2022-12-29T06:09:55;9.90;99.90
57218;DHT22;43078;52.972;6.482;2022-12-29T06:12:20;9.80;99.90
57218;DHT22;43078;52.972;6.482;2022-12-29T06:14:46;9.80;99.90
57218;DHT22;43078;52.972;6.482;2022-12-29T06:17:11;9.80;99.90
57218;DHT22;43078;52.972;6.482;2022-12-29T06:19:37;9.80;99.90
57218;DHT22;43078;52.972;6.482;2022-12-29T06:22:02;9.80;99.90
57218;DHT22;43078;52.972;6.482;2022-12-29T06:24:28;9.80;99.90
57218;DHT22;43078;52.972;6.482;2022-12-29T06:26:54;9.80;99.90
57218;DHT22;43078;52.972;6.482;2022-12-29T06:29:19;9.80;99.90
57218;DHT22;43078;52.972;6.482;2022-12-29T06:31:46;9.70;99.90
57218;DHT22;43078;52.972;6.482;2022-12-29T06:34:12;9.80;99.90
57218;DHT22;43078;52.972;6.482;2022-12-29T06:36:38;9.70;99.90
57218;DHT22;43078;52.972;6.482;2022-12-29T06:39:04;9.70;99.90
57218;DHT22;43078;52.972;6.482;2022-12-29T06:41:30;9.80;99.90
57218;DHT22;43078;52.972;6.482;2022-12-29T06:43:56;9.70;99.90
57218;DHT22;43078;52.972;6.482;2022-12-29T06:46:22;9.70;99.90
57218;DHT22;43078;52.972;6.482;2022-12-29T06:48:48;9.80;99.90
57218;DHT22;43078;52.972;6.482;2022-12-29T06:51:13;9.70;99.90
57218;DHT22;43078;52.972;6.482;2022-12-29T06:53:39;9.70;99.90
57218;DHT22;43078;52.972;6.482;2022-12-29T06:56:05;9.70;99.90
57218;DHT22;43078;52.972;6.482;2022-12-29T06:58:30;9.70;99.90
57218;DHT22;43078;52.972;6.482;2022-12-29T07:00:56;9.70;99.90
57218;DHT22;43078;52.972;6.482;2022-12-29T07:03:22;9.70;99.90
57218;DHT22;43078;52.972;6.482;2022-12-29T07:05:47;9.70;99.90
57218;DHT22;43078;52.972;6.482;2022-12-29T07:08:13;9.70;99.90
57218;DHT22;43078;52.972;6.482;2022-12-29T07:10:39;9.70;99.90
57218;DHT22;43078;52.972;6.482;2022-12-29T07:13:04;9.70;99.90
57218;DHT22;43078;52.972;6.482;2022-12-29T07:15:33;9.70;99.90
57218;DHT22;43078;52.972;6.482;2022-12-29T07:17:59;9.70;99.90
57218;DHT22;43078;52.972;6.482;2022-12-29T07:20:24;9.70;99.90
57218;DHT22;43078;52.972;6.482;2022-12-29T07:22:50;9.70;99.90
57218;DHT22;43078;52.972;6.482;2022-12-29T07:25:16;9.70;99.90
57218;DHT22;43078;52.972;6.482;2022-12-29T07:27:41;9.70;99.90
57218;DHT22;43078;52.972;6.482;2022-12-29T07:30:07;9.70;99.90
57218;DHT22;43078;52.972;6.482;2022-12-29T07:32:34;9.70;99.90
57218;DHT22;43078;52.972;6.482;2022-12-29T07:34:59;9.70;99.90
57218;DHT22;43078;52.972;6.482;2022-12-29T07:37:28;9.70;99.90
57218;DHT22;43078;52.972;6.482;2022-12-29T07:39:54;9.70;99.90
57218;DHT22;43078;52.972;6.482;2022-12-29T07:42:19;9.80;99.90
57218;DHT22;43078;52.972;6.482;2022-12-29T07:44:45;9.70;99.90
57218;DHT22;43078;52.972;6.482;2022-12-29T07:47:10;9.80;99.90
57218;DHT22;43078;52.972;6.482;2022-12-29T07:49:36;9.70;99.90
57218;DHT22;43078;52.972;6.482;2022-12-29T07:52:02;9.70;99.90
57218;DHT22;43078;52.972;6.482;2022-12-29T07:54:27;9.70;99.90
57218;DHT22;43078;52.972;6.482;2022-12-29T07:56:53;9.70;99.90
57218;DHT22;43078;52.972;6.482;2022-12-29T07:59:19;9.70;99.90
57218;DHT22;43078;52.972;6.482;2022-12-29T08:01:44;9.70;99.90
57218;DHT22;43078;52.972;6.482;2022-12-29T08:04:10;9.70;99.90
57218;DHT22;43078;52.972;6.482;2022-12-29T08:06:36;9.70;99.90
57218;DHT22;43078;52.972;6.482;2022-12-29T08:09:03;9.70;99.90
57218;DHT22;43078;52.972;6.482;2022-12-29T08:11:29;9.70;99.90
57218;DHT22;43078;52.972;6.482;2022-12-29T08:13:54;9.70;99.90
57218;DHT22;43078;52.972;6.482;2022-12-29T08:16:20;9.70;99.90
57218;DHT22;43078;52.972;6.482;2022-12-29T08:18:45;9.70;99.90
57218;DHT22;43078;52.972;6.482;2022-12-29T08:21:11;9.70;99.90
57218;DHT22;43078;52.972;6.482;2022-12-29T08:23:37;9.70;99.90
57218;DHT22;43078;52.972;6.482;2022-12-29T08:26:04;9.70;99.90
57218;DHT22;43078;52.972;6.482;2022-12-29T08:28:31;9.70;99.90
57218;DHT22;43078;52.972;6.482;2022-12-29T08:30:58;9.70;99.90
57218;DHT22;43078;52.972;6.482;2022-12-29T08:33:24;9.70;99.90
57218;DHT22;43078;52.972;6.482;2022-12-29T08:35:50;9.70;99.90
57218;DHT22;43078;52.972;6.482;2022-12-29T08:38:16;9.70;99.90
57218;DHT22;43078;52.972;6.482;2022-12-29T08:40:42;9.70;99.90
57218;DHT22;43078;52.972;6.482;2022-12-29T08:43:08;9.70;99.90
57218;DHT22;43078;52.972;6.482;2022-12-29T08:45:34;9.70;99.90
57218;DHT22;43078;52.972;6.482;2022-12-29T08:47:59;9.70;99.90
57218;DHT22;43078;52.972;6.482;2022-12-29T08:50:25;9.70;99.90
57218;DHT22;43078;52.972;6.482;2022-12-29T08:52:51;9.70;99.90
57218;DHT22;43078;52.972;6.482;2022-12-29T08:55:16;9.70;99.90
57218;DHT22;43078;52.972;6.482;2022-12-29T08:57:42;9.70;99.90
57218;DHT22;43078;52.972;6.482;2022-12-29T09:00:08;9.70;99.90
57218;DHT22;43078;52.972;6.482;2022-12-29T09:02:34;9.70;99.90
57218;DHT22;43078;52.972;6.482;2022-12-29T09:04:59;9.70;99.90
57218;DHT22;43078;52.972;6.482;2022-12-29T09:07:26;9.70;99.90
57218;DHT22;43078;52.972;6.482;2022-12-29T09:09:52;9.80;99.90
57218;DHT22;43078;52.972;6.482;2022-12-29T09:12:17;9.70;99.90
57218;DHT22;43078;52.972;6.482;2022-12-29T09:14:43;9.70;99.90
57218;DHT22;43078;52.972;6.482;2022-12-29T09:17:10;9.70;99.90
57218;DHT22;43078;52.972;6.482;2022-12-29T09:19:55;9.70;99.90
57218;DHT22;43078;52.972;6.482;2022-12-29T09:22:21;9.70;99.90
57218;DHT22;43078;52.972;6.482;2022-12-29T09:24:46;9.70;99.90
57218;DHT22;43078;52.972;6.482;2022-12-29T09:27:12;9.70;99.90
57218;DHT22;43078;52.972;6.482;2022-12-29T09:29:37;9.70;99.90
57218;DHT22;43078;52.972;6.482;2022-12-29T09:32:03;9.60;99.90
57218;DHT22;43078;52.972;6.482;2022-12-29T09:34:29;9.60;99.90
57218;DHT22;43078;52.972;6.482;2022-12-29T09:36:54;9.60;99.90
57218;DHT22;43078;52.972;6.482;2022-12-29T09:39:22;9.60;99.90
57218;DHT22;43078;52.972;6.482;2022-12-29T09:42:08;9.60;99.90
57218;DHT22;43078;52.972;6.482;2022-12-29T09:47:26;9.60;99.90
57218;DHT22;43078;52.972;6.482;2022-12-29T09:52:23;9.60;99.90
57218;DHT22;43078;52.972;6.482;2022-12-29T09:55:20;9.70;99.90
57218;DHT22;43078;52.972;6.482;2022-12-29T09:58:26;9.60;99.90
57218;DHT22;43078;52.972;6.482;2022-12-29T10:09:33;9.60;99.90
57218;DHT22;43078;52.972;6.482;2022-12-29T10:15:09;9.50;99.90
57218;DHT22;43078;52.972;6.482;2022-12-29T10:23:17;9.50;99.90
57218;DHT22;43078;52.972;6.482;2022-12-29T10:25:45;9.40;99.90
57218;DHT22;43078;52.972;6.482;2022-12-29T10:31:16;9.40;99.90
57218;DHT22;43078;52.972;6.482;2022-12-29T10:33:46;9.40;99.90
57218;DHT22;43078;52.972;6.482;2022-12-29T10:36:43;9.40;99.90
57218;DHT22;43078;52.972;6.482;2022-12-29T10:44:39;9.30;99.90
57218;DHT22;43078;52.972;6.482;2022-12-29T10:47:14;9.30;99.90
57218;DHT22;43078;52.972;6.482;2022-12-29T10:49:43;9.30;99.90
57218;DHT22;43078;52.972;6.482;2022-12-29T10:52:11;9.30;99.90
57218;DHT22;43078;52.972;6.482;2022-12-29T11:00:00;9.30;99.90
57218;DHT22;43078;52.972;6.482;2022-12-29T11:08:28;9.30;99.90
57218;DHT22;43078;52.972;6.482;2022-12-29T11:11:08;9.20;99.90
57218;DHT22;43078;52.972;6.482;2022-12-29T11:13:48;9.20;99.90
57218;DHT22;43078;52.972;6.482;2022-12-29T11:16:14;9.20;99.90
57218;DHT22;43078;52.972;6.482;2022-12-29T11:18:48;9.20;99.90
57218;DHT22;43078;52.972;6.482;2022-12-29T11:21:35;9.20;99.90
57218;DHT22;43078;52.972;6.482;2022-12-29T11:24:22;9.20;99.90
57218;DHT22;43078;52.972;6.482;2022-12-29T11:26:56;9.20;99.90
57218;DHT22;43078;52.972;6.482;2022-12-29T11:29:39;9.20;99.90
57218;DHT22;43078;52.972;6.482;2022-12-29T11:32:25;9.20;99.90
57218;DHT22;43078;52.972;6.482;2022-12-29T11:34:52;9.20;99.90
57218;DHT22;43078;52.972;6.482;2022-12-29T11:37:27;9.20;99.90
57218;DHT22;43078;52.972;6.482;2022-12-29T11:40:03;9.30;99.90
57218;DHT22;43078;52.972;6.482;2022-12-29T11:42:41;9.20;99.90
57218;DHT22;43078;52.972;6.482;2022-12-29T11:45:20;9.20;99.90
57218;DHT22;43078;52.972;6.482;2022-12-29T11:47:58;9.20;99.90
57218;DHT22;43078;52.972;6.482;2022-12-29T11:50:30;9.20;99.90
57218;DHT22;43078;52.972;6.482;2022-12-29T11:53:38;9.20;99.90
57218;DHT22;43078;52.972;6.482;2022-12-29T11:56:08;9.20;99.90
57218;DHT22;43078;52.972;6.482;2022-12-29T11:58:37;9.30;99.90
57218;DHT22;43078;52.972;6.482;2022-12-29T12:04:06;9.30;99.90
57218;DHT22;43078;52.972;6.482;2022-12-29T12:06:38;9.40;99.90
57218;DHT22;43078;52.972;6.482;2022-12-29T12:09:19;9.40;99.90
57218;DHT22;43078;52.972;6.482;2022-12-29T12:11:52;9.40;99.90
57218;DHT22;43078;52.972;6.482;2022-12-29T12:14:38;9.50;99.90
57218;DHT22;43078;52.972;6.482;2022-12-29T12:17:14;9.50;99.90
57218;DHT22;43078;52.972;6.482;2022-12-29T12:22:20;9.60;99.90
57218;DHT22;43078;52.972;6.482;2022-12-29T12:27:57;9.50;99.90
57218;DHT22;43078;52.972;6.482;2022-12-29T12:30:29;9.50;99.90
57218;DHT22;43078;52.972;6.482;2022-12-29T12:41:16;9.50;99.90
57218;DHT22;43078;52.972;6.482;2022-12-29T12:43:50;9.60;99.90
57218;DHT22;43078;52.972;6.482;2022-12-29T12:57:48;9.70;99.90
57218;DHT22;43078;52.972;6.482;2022-12-29T13:00:18;9.70;99.90
57218;DHT22;43078;52.972;6.482;2022-12-29T13:10:53;9.80;99.90
57218;DHT22;43078;52.972;6.482;2022-12-29T13:21:54;9.90;99.90
57218;DHT22;43078;52.972;6.482;2022-12-29T13:27:59;9.90;99.90
57218;DHT22;43078;52.972;6.482;2022-12-29T13:30:47;9.90;99.90
57218;DHT22;43078;52.972;6.482;2022-12-29T13:33:41;9.90;99.90
57218;DHT22;43078;52.972;6.482;2022-12-29T13:36:24;9.90;99.90
57218;DHT22;43078;52.972;6.482;2022-12-29T13:39:11;9.90;99.90
57218;DHT22;43078;52.972;6.482;2022-12-29T13:41:44;9.90;99.90
57218;DHT22;43078;52.972;6.482;2022-12-29T13:44:16;9.90;99.90
57218;DHT22;43078;52.972;6.482;2022-12-29T13:46:44;9.90;99.90
57218;DHT22;43078;52.972;6.482;2022-12-29T13:49:18;9.90;99.90
57218;DHT22;43078;52.972;6.482;2022-12-29T13:51:51;9.90;99.90
57218;DHT22;43078;52.972;6.482;2022-12-29T13:57:03;9.90;99.90
57218;DHT22;43078;52.972;6.482;2022-12-29T14:02:36;9.90;99.90
57218;DHT22;43078;52.972;6.482;2022-12-29T14:05:27;9.90;99.90
57218;DHT22;43078;52.972;6.482;2022-12-29T14:08:04;9.90;99.90
57218;DHT22;43078;52.972;6.482;2022-12-29T14:10:36;9.80;99.90
57218;DHT22;43078;52.972;6.482;2022-12-29T14:13:23;9.80;99.90
57218;DHT22;43078;52.972;6.482;2022-12-29T14:15:55;9.80;99.90
57218;DHT22;43078;52.972;6.482;2022-12-29T14:18:32;9.80;99.90
57218;DHT22;43078;52.972;6.482;2022-12-29T14:23:43;9.70;99.90
57218;DHT22;43078;52.972;6.482;2022-12-29T14:28:55;9.60;99.90
57218;DHT22;43078;52.972;6.482;2022-12-29T14:44:25;9.50;99.90
57218;DHT22;43078;52.972;6.482;2022-12-29T14:49:29;9.40;99.90
57218;DHT22;43078;52.972;6.482;2022-12-29T14:52:06;9.40;99.90
57218;DHT22;43078;52.972;6.482;2022-12-29T14:54:43;9.30;99.90
57218;DHT22;43078;52.972;6.482;2022-12-29T14:57:15;9.30;99.90
57218;DHT22;43078;52.972;6.482;2022-12-29T14:59:44;9.30;99.90
57218;DHT22;43078;52.972;6.482;2022-12-29T15:02:21;9.30;99.90
57218;DHT22;43078;52.972;6.482;2022-12-29T15:04:47;9.30;99.90
57218;DHT22;43078;52.972;6.482;2022-12-29T15:07:13;9.20;99.90
57218;DHT22;43078;52.972;6.482;2022-12-29T15:09:50;9.30;99.90
57218;DHT22;43078;52.972;6.482;2022-12-29T15:17:25;9.10;99.90
57218;DHT22;43078;52.972;6.482;2022-12-29T15:19:52;9.10;99.90
57218;DHT22;43078;52.972;6.482;2022-12-29T15:22:17;9.10;99.90
57218;DHT22;43078;52.972;6.482;2022-12-29T15:24:44;9.10;99.90
57218;DHT22;43078;52.972;6.482;2022-12-29T15:27:14;9.10;99.90
57218;DHT22;43078;52.972;6.482;2022-12-29T15:29:42;9.10;99.90
57218;DHT22;43078;52.972;6.482;2022-12-29T15:32:21;9.00;99.90
57218;DHT22;43078;52.972;6.482;2022-12-29T15:34:53;9.00;99.90
57218;DHT22;43078;52.972;6.482;2022-12-29T15:37:25;9.00;99.90
57218;DHT22;43078;52.972;6.482;2022-12-29T15:39:52;9.00;99.90
57218;DHT22;43078;52.972;6.482;2022-12-29T15:44:53;9.00;99.90
57218;DHT22;43078;52.972;6.482;2022-12-29T15:47:19;9.00;99.90
57218;DHT22;43078;52.972;6.482;2022-12-29T15:49:50;8.90;99.90
57218;DHT22;43078;52.972;6.482;2022-12-29T15:52:19;8.90;99.90
57218;DHT22;43078;52.972;6.482;2022-12-29T15:55:05;8.90;99.90
57218;DHT22;43078;52.972;6.482;2022-12-29T15:57:42;8.90;99.90
57218;DHT22;43078;52.972;6.482;2022-12-29T16:00:36;8.90;99.90
57218;DHT22;43078;52.972;6.482;2022-12-29T16:03:32;8.90;99.90
57218;DHT22;43078;52.972;6.482;2022-12-29T16:07:05;8.90;99.90
57218;DHT22;43078;52.972;6.482;2022-12-29T16:09:43;8.80;99.90
57218;DHT22;43078;52.972;6.482;2022-12-29T16:12:25;8.90;99.90
57218;DHT22;43078;52.972;6.482;2022-12-29T16:14:59;8.90;99.90
57218;DHT22;43078;52.972;6.482;2022-12-29T16:17:58;8.90;99.90
57218;DHT22;43078;52.972;6.482;2022-12-29T16:20:39;8.90;99.90
57218;DHT22;43078;52.972;6.482;2022-12-29T16:23:31;8.90;99.90
57218;DHT22;43078;52.972;6.482;2022-12-29T16:30:02;8.90;99.90
57218;DHT22;43078;52.972;6.482;2022-12-29T16:33:54;8.90;99.90
57218;DHT22;43078;52.972;6.482;2022-12-29T16:36:34;8.90;99.90
57218;DHT22;43078;52.972;6.482;2022-12-29T16:39:43;8.90;99.90
57218;DHT22;43078;52.972;6.482;2022-12-29T16:50:35;8.90;99.90
57218;DHT22;43078;52.972;6.482;2022-12-29T16:53:02;8.90;99.90
57218;DHT22;43078;52.972;6.482;2022-12-29T16:55:28;8.80;99.90
57218;DHT22;43078;52.972;6.482;2022-12-29T16:57:55;8.80;99.90
57218;DHT22;43078;52.972;6.482;2022-12-29T17:00:33;8.70;99.90
57218;DHT22;43078;52.972;6.482;2022-12-29T17:03:00;8.70;99.90
57218;DHT22;43078;52.972;6.482;2022-12-29T17:05:26;8.60;99.90
57218;DHT22;43078;52.972;6.482;2022-12-29T17:07:52;8.60;99.90
57218;DHT22;43078;52.972;6.482;2022-12-29T17:10:18;8.60;99.90
57218;DHT22;43078;52.972;6.482;2022-12-29T17:12:47;8.50;99.90
57218;DHT22;43078;52.972;6.482;2022-12-29T17:15:25;8.50;99.90
57218;DHT22;43078;52.972;6.482;2022-12-29T17:17:53;8.50;99.90
57218;DHT22;43078;52.972;6.482;2022-12-29T17:20:25;8.50;99.90
57218;DHT22;43078;52.972;6.482;2022-12-29T17:22:52;8.40;99.90
57218;DHT22;43078;52.972;6.482;2022-12-29T17:25:32;8.40;99.90
57218;DHT22;43078;52.972;6.482;2022-12-29T17:28:32;8.40;99.90
57218;DHT22;43078;52.972;6.482;2022-12-29T17:31:00;8.30;99.90
57218;DHT22;43078;52.972;6.482;2022-12-29T17:33:27;8.30;99.90
57218;DHT22;43078;52.972;6.482;2022-12-29T17:35:55;8.30;99.90
57218;DHT22;43078;52.972;6.482;2022-12-29T17:38:28;8.30;99.90
57218;DHT22;43078;52.972;6.482;2022-12-29T17:40:55;8.20;99.90
57218;DHT22;43078;52.972;6.482;2022-12-29T17:43:21;8.20;99.90
57218;DHT22;43078;52.972;6.482;2022-12-29T17:45:52;8.20;99.90
57218;DHT22;43078;52.972;6.482;2022-12-29T17:48:18;8.20;99.90
57218;DHT22;43078;52.972;6.482;2022-12-29T17:50:46;8.20;99.90
57218;DHT22;43078;52.972;6.482;2022-12-29T17:53:20;8.20;99.90
57218;DHT22;43078;52.972;6.482;2022-12-29T17:55:47;8.20;99.90
57218;DHT22;43078;52.972;6.482;2022-12-29T17:58:21;8.20;99.90
57218;DHT22;43078;52.972;6.482;2022-12-29T18:00:58;8.20;99.90
57218;DHT22;43078;52.972;6.482;2022-12-29T18:03:38;8.20;99.90
57218;DHT22;43078;52.972;6.482;2022-12-29T18:06:06;8.20;99.90
57218;DHT22;43078;52.972;6.482;2022-12-29T18:08:36;8.20;99.90
57218;DHT22;43078;52.972;6.482;2022-12-29T18:11:05;8.20;99.90
57218;DHT22;43078;52.972;6.482;2022-12-29T18:13:31;8.20;99.90
57218;DHT22;43078;52.972;6.482;2022-12-29T18:15:59;8.10;99.90
57218;DHT22;43078;52.972;6.482;2022-12-29T18:18:26;8.10;99.90
57218;DHT22;43078;52.972;6.482;2022-12-29T18:20:54;8.20;99.90
57218;DHT22;43078;52.972;6.482;2022-12-29T18:23:28;8.20;99.90
57218;DHT22;43078;52.972;6.482;2022-12-29T18:26:15;8.20;99.90
57218;DHT22;43078;52.972;6.482;2022-12-29T18:28:42;8.20;99.90
57218;DHT22;43078;52.972;6.482;2022-12-29T18:31:30;8.20;99.90
57218;DHT22;43078;52.972;6.482;2022-12-29T18:33:58;8.20;99.90
57218;DHT22;43078;52.972;6.482;2022-12-29T18:36:24;8.20;99.90
57218;DHT22;43078;52.972;6.482;2022-12-29T18:38:51;8.20;99.90
57218;DHT22;43078;52.972;6.482;2022-12-29T18:41:24;8.30;99.90
57218;DHT22;43078;52.972;6.482;2022-12-29T18:43:50;8.20;99.90
57218;DHT22;43078;52.972;6.482;2022-12-29T18:46:16;8.20;99.90
57218;DHT22;43078;52.972;6.482;2022-12-29T18:48:42;8.30;99.90
57218;DHT22;43078;52.972;6.482;2022-12-29T18:51:15;8.30;99.90
57218;DHT22;43078;52.972;6.482;2022-12-29T18:53:41;8.30;99.90
57218;DHT22;43078;52.972;6.482;2022-12-29T18:56:07;8.30;99.90
57218;DHT22;43078;52.972;6.482;2022-12-29T18:58:34;8.30;99.90